sensor_id;sensor_type;location;lat;lon;timestamp;pressure;altitude;pressure_sealevel;temperature;humidity
78509;BME280;67802;50.846;7.958;2024-02-04T00:01:14;98565.25;;;18.89;34.02
78509;BME280;67802;50.846;7.958;2024-02-04T00:03:40;98561.78;;;18.89;34.10
78509;BME280;67802;50.846;7.958;2024-02-04T00:06:05;98546.94;;;18.88;34.09
78509;BME280;67802;50.846;7.958;2024-02-04T00:08:31;98540.81;;;18.87;33.90
78509;BME280;67802;50.846;7.958;2024-02-04T00:10:57;98530.41;;;18.86;34.04
78509;BME280;67802;50.846;7.958;2024-02-04T00:13:22;98531.34;;;18.84;34.13
78509;BME280;67802;50.846;7.958;2024-02-04T00:15:48;98543.66;;;18.84;34.03
78509;BME280;67802;50.846;7.958;2024-02-04T00:18:13;98539.44;;;18.81;34.09
78509;BME280;67802;50.846;7.958;2024-02-04T00:20:38;98538.50;;;18.82;34.13
78509;BME280;67802;50.846;7.958;2024-02-04T00:23:04;98535.13;;;18.80;34.14
78509;BME280;67802;50.846;7.958;2024-02-04T00:25:29;98534.28;;;18.80;34.02
78509;BME280;67802;50.846;7.958;2024-02-04T00:27:54;98541.34;;;18.79;33.87
78509;BME280;67802;50.846;7.958;2024-02-04T00:30:20;98542.28;;;18.78;33.93
78509;BME280;67802;50.846;7.958;2024-02-04T00:32:45;98542.28;;;18.78;34.10
78509;BME280;67802;50.846;7.958;2024-02-04T00:35:11;98537.97;;;18.77;33.95
78509;BME280;67802;50.846;7.958;2024-02-04T00:37:36;98536.19;;;18.78;33.82
78509;BME280;67802;50.846;7.958;2024-02-04T00:40:01;98537.97;;;18.77;34.11
78509;BME280;67802;50.846;7.958;2024-02-04T00:42:27;98541.53;;;18.76;34.18
78509;BME280;67802;50.846;7.958;2024-02-04T00:44:52;98541.53;;;18.76;33.99
78509;BME280;67802;50.846;7.958;2024-02-04T00:47:18;98541.53;;;18.76;34.08
78509;BME280;67802;50.846;7.958;2024-02-04T00:49:43;98532.91;;;18.74;34.02
78509;BME280;67802;50.846;7.958;2024-02-04T00:52:08;98528.38;;;18.76;34.04
78509;BME280;67802;50.846;7.958;2024-02-04T00:54:33;98536.38;;;18.75;34.17
78509;BME280;67802;50.846;7.958;2024-02-04T00:56:59;98531.94;;;18.75;34.02
78509;BME280;67802;50.846;7.958;2024-02-04T00:59:25;98522.38;;;18.74;34.00
78509;BME280;67802;50.846;7.958;2024-02-04T01:01:50;98521.41;;;18.75;34.20
78509;BME280;67802;50.846;7.958;2024-02-04T01:04:15;98525.84;;;18.75;33.98
78509;BME280;67802;50.846;7.958;2024-02-04T01:06:41;98526.69;;;18.75;33.90
78509;BME280;67802;50.846;7.958;2024-02-04T01:09:06;98531.00;;;18.76;33.79
78509;BME280;67802;50.846;7.958;2024-02-04T01:11:33;98531.94;;;18.75;34.04
78509;BME280;67802;50.846;7.958;2024-02-04T01:13:58;98534.50;;;18.77;34.09
78509;BME280;67802;50.846;7.958;2024-02-04T01:16:24;98537.13;;;18.77;33.93
78509;BME280;67802;50.846;7.958;2024-02-04T01:18:49;98535.31;;;18.77;34.10
78509;BME280;67802;50.846;7.958;2024-02-04T01:21:14;98539.66;;;18.78;34.06
78509;BME280;67802;50.846;7.958;2024-02-04T01:23:39;98543.97;;;18.79;34.13
78509;BME280;67802;50.846;7.958;2024-02-04T01:26:05;98544.81;;;18.80;34.08
78509;BME280;67802;50.846;7.958;2024-02-04T01:28:30;98540.38;;;18.80;34.05
78509;BME280;67802;50.846;7.958;2024-02-04T01:30:55;98523.66;;;18.81;34.08
78509;BME280;67802;50.846;7.958;2024-02-04T01:33:21;98523.66;;;18.81;34.16
78509;BME280;67802;50.846;7.958;2024-02-04T01:35:46;98521.03;;;18.81;33.83
78509;BME280;67802;50.846;7.958;2024-02-04T01:38:11;98527.84;;;18.84;33.92
78509;BME280;67802;50.846;7.958;2024-02-04T01:40:37;98513.88;;;18.83;33.91
78509;BME280;67802;50.846;7.958;2024-02-04T01:43:02;98511.13;;;18.85;34.10
78509;BME280;67802;50.846;7.958;2024-02-04T01:45:27;98517.25;;;18.86;34.00
78509;BME280;67802;50.846;7.958;2024-02-04T01:47:53;98518.94;;;18.87;33.92
78509;BME280;67802;50.846;7.958;2024-02-04T01:50:19;98511.03;;;18.87;34.00
78509;BME280;67802;50.846;7.958;2024-02-04T01:52:44;98501.25;;;18.89;33.98
78509;BME280;67802;50.846;7.958;2024-02-04T01:55:10;98498.50;;;18.90;34.00
78509;BME280;67802;50.846;7.958;2024-02-04T01:57:36;98497.66;;;18.90;33.85
78509;BME280;67802;50.846;7.958;2024-02-04T02:00:02;98483.56;;;18.91;33.93
78509;BME280;67802;50.846;7.958;2024-02-04T02:02:29;98493.97;;;18.92;33.92
78509;BME280;67802;50.846;7.958;2024-02-04T02:04:56;98493.88;;;18.94;33.77
78509;BME280;67802;50.846;7.958;2024-02-04T02:07:23;98493.88;;;18.94;33.90
78509;BME280;67802;50.846;7.958;2024-02-04T02:09:52;98491.25;;;18.94;33.77
78509;BME280;67802;50.846;7.958;2024-02-04T02:12:21;98496.53;;;18.94;34.00
78509;BME280;67802;50.846;7.958;2024-02-04T02:14:52;98490.50;;;18.92;33.80
78509;BME280;67802;50.846;7.958;2024-02-04T02:17:27;98498.50;;;18.90;33.86
78509;BME280;67802;50.846;7.958;2024-02-04T02:20:30;98485.53;;;18.87;34.00
78509;BME280;67802;50.846;7.958;2024-02-04T02:23:03;98480.59;;;18.82;34.07
78509;BME280;67802;50.846;7.958;2024-02-04T02:25:33;98484.16;;;18.81;34.02
78509;BME280;67802;50.846;7.958;2024-02-04T02:28:00;98477.34;;;18.79;34.09
78509;BME280;67802;50.846;7.958;2024-02-04T02:30:25;98477.41;;;18.77;34.08
78509;BME280;67802;50.846;7.958;2024-02-04T02:32:51;98474.03;;;18.75;34.12
78509;BME280;67802;50.846;7.958;2024-02-04T02:35:17;98470.59;;;18.75;34.23
78509;BME280;67802;50.846;7.958;2024-02-04T02:37:53;98463.53;;;18.75;34.20
78509;BME280;67802;50.846;7.958;2024-02-04T02:40:47;98465.22;;;18.76;34.26
78509;BME280;67802;50.846;7.958;2024-02-04T02:43:13;98466.06;;;18.77;34.09
78509;BME280;67802;50.846;7.958;2024-02-04T02:45:43;98462.50;;;18.78;34.04
78509;BME280;67802;50.846;7.958;2024-02-04T02:48:09;98465.00;;;18.79;33.87
78509;BME280;67802;50.846;7.958;2024-02-04T02:50:35;98466.69;;;18.80;34.01
78509;BME280;67802;50.846;7.958;2024-02-04T02:53:01;98458.78;;;18.80;34.21
78509;BME280;67802;50.846;7.958;2024-02-04T02:55:26;98456.91;;;18.82;33.88
78509;BME280;67802;50.846;7.958;2024-02-04T02:57:51;98450.69;;;18.83;33.92
78509;BME280;67802;50.846;7.958;2024-02-04T03:00:17;98459.34;;;18.86;33.85
78509;BME280;67802;50.846;7.958;2024-02-04T03:02:42;98461.84;;;18.87;34.02
78509;BME280;67802;50.846;7.958;2024-02-04T03:05:08;98457.44;;;18.88;33.86
78509;BME280;67802;50.846;7.958;2024-02-04T03:07:33;98458.38;;;18.87;34.02
78509;BME280;67802;50.846;7.958;2024-02-04T03:09:58;98452.91;;;18.90;34.05
78509;BME280;67802;50.846;7.958;2024-02-04T03:12:24;98448.47;;;18.90;33.94
78509;BME280;67802;50.846;7.958;2024-02-04T03:14:49;98454.59;;;18.91;34.07
78509;BME280;67802;50.846;7.958;2024-02-04T03:17:15;98450.16;;;18.91;33.92
78509;BME280;67802;50.846;7.958;2024-02-04T03:19:40;98453.66;;;18.92;33.96
78509;BME280;67802;50.846;7.958;2024-02-04T03:22:05;98447.53;;;18.91;33.94
78509;BME280;67802;50.846;7.958;2024-02-04T03:24:30;98458.91;;;18.92;33.91
78509;BME280;67802;50.846;7.958;2024-02-04T03:26:56;98454.47;;;18.92;33.81
78509;BME280;67802;50.846;7.958;2024-02-04T03:29:21;98447.44;;;18.93;33.99
78509;BME280;67802;50.846;7.958;2024-02-04T03:31:46;98460.59;;;18.93;33.94
78509;BME280;67802;50.846;7.958;2024-02-04T03:34:12;98454.47;;;18.92;34.11
78509;BME280;67802;50.846;7.958;2024-02-04T03:36:37;98456.28;;;18.92;33.95
78509;BME280;67802;50.846;7.958;2024-02-04T03:39:03;98458.91;;;18.92;34.00
78509;BME280;67802;50.846;7.958;2024-02-04T03:41:29;98459.88;;;18.91;34.08
78509;BME280;67802;50.846;7.958;2024-02-04T03:43:54;98467.75;;;18.91;33.80
78509;BME280;67802;50.846;7.958;2024-02-04T03:46:20;98459.94;;;18.89;34.11
78509;BME280;67802;50.846;7.958;2024-02-04T03:48:46;98454.06;;;18.86;33.98
78509;BME280;67802;50.846;7.958;2024-02-04T03:51:18;98457.53;;;18.86;33.92
78509;BME280;67802;50.846;7.958;2024-02-04T03:53:44;98457.84;;;18.81;34.20
78509;BME280;67802;50.846;7.958;2024-02-04T03:56:09;98463.84;;;18.83;33.97
78509;BME280;67802;50.846;7.958;2024-02-04T03:58:35;98453.31;;;18.83;33.90
78509;BME280;67802;50.846;7.958;2024-02-04T04:01:00;98447.31;;;18.81;34.21
78509;BME280;67802;50.846;7.958;2024-02-04T04:03:26;98447.31;;;18.81;33.97
78509;BME280;67802;50.846;7.958;2024-02-04T04:05:53;98447.31;;;18.81;33.99
78509;BME280;67802;50.846;7.958;2024-02-04T04:08:18;98441.22;;;18.81;34.13
78509;BME280;67802;50.846;7.958;2024-02-04T04:10:44;98435.09;;;18.80;34.17
78509;BME280;67802;50.846;7.958;2024-02-04T04:13:10;98425.44;;;18.81;34.15
78509;BME280;67802;50.846;7.958;2024-02-04T04:15:35;98432.34;;;18.82;33.98
78509;BME280;67802;50.846;7.958;2024-02-04T04:18:01;98412.28;;;18.81;34.12
78509;BME280;67802;50.846;7.958;2024-02-04T04:20:26;98411.31;;;18.82;34.04
78509;BME280;67802;50.846;7.958;2024-02-04T04:22:51;98430.47;;;18.84;34.22
78509;BME280;67802;50.846;7.958;2024-02-04T04:25:17;98433.94;;;18.84;33.98
78509;BME280;67802;50.846;7.958;2024-02-04T04:27:43;98421.63;;;18.85;33.99
78509;BME280;67802;50.846;7.958;2024-02-04T04:30:09;98425.94;;;18.86;34.05
78509;BME280;67802;50.846;7.958;2024-02-04T04:32:34;98413.63;;;18.87;33.98
78509;BME280;67802;50.846;7.958;2024-02-04T04:35:00;98415.31;;;18.88;34.13
78509;BME280;67802;50.846;7.958;2024-02-04T04:37:25;98439.75;;;18.90;33.94
78509;BME280;67802;50.846;7.958;2024-02-04T04:39:50;98438.81;;;18.91;34.02
78509;BME280;67802;50.846;7.958;2024-02-04T04:42:15;98425.66;;;18.91;34.09
78509;BME280;67802;50.846;7.958;2024-02-04T04:44:41;98422.91;;;18.92;33.84
78509;BME280;67802;50.846;7.958;2024-02-04T04:47:06;98418.50;;;18.93;33.95
78509;BME280;67802;50.846;7.958;2024-02-04T04:49:31;98420.94;;;18.96;34.02
78509;BME280;67802;50.846;7.958;2024-02-04T04:51:56;98412.09;;;18.97;33.85
78509;BME280;67802;50.846;7.958;2024-02-04T04:54:22;98421.69;;;18.98;34.01
78509;BME280;67802;50.846;7.958;2024-02-04T04:56:47;98424.19;;;19.00;33.91
78509;BME280;67802;50.846;7.958;2024-02-04T04:59:15;98426.75;;;19.01;33.91
78509;BME280;67802;50.846;7.958;2024-02-04T05:01:48;98426.75;;;19.01;33.57
78509;BME280;67802;50.846;7.958;2024-02-04T05:04:13;98433.69;;;19.02;33.96
78509;BME280;67802;50.846;7.958;2024-02-04T05:06:40;98427.47;;;19.03;33.95
78509;BME280;67802;50.846;7.958;2024-02-04T05:09:05;98439.78;;;19.03;33.99
78509;BME280;67802;50.846;7.958;2024-02-04T05:11:30;98440.66;;;19.03;34.10
78509;BME280;67802;50.846;7.958;2024-02-04T05:13:56;98443.28;;;19.03;33.83
78509;BME280;67802;50.846;7.958;2024-02-04T05:16:21;98449.50;;;19.02;34.01
78509;BME280;67802;50.846;7.958;2024-02-04T05:18:46;98441.59;;;19.02;34.02
78509;BME280;67802;50.846;7.958;2024-02-04T05:21:12;98443.38;;;19.02;34.05
78509;BME280;67802;50.846;7.958;2024-02-04T05:23:37;98446.94;;;19.01;33.89
78509;BME280;67802;50.846;7.958;2024-02-04T05:26:03;98447.81;;;19.01;33.96
78509;BME280;67802;50.846;7.958;2024-02-04T05:28:29;98430.31;;;19.00;34.02
78509;BME280;67802;50.846;7.958;2024-02-04T05:30:55;98431.16;;;19.01;34.08
78509;BME280;67802;50.846;7.958;2024-02-04T05:33:20;98425.88;;;19.01;34.05
78509;BME280;67802;50.846;7.958;2024-02-04T05:35:45;98425.06;;;19.00;34.08
78509;BME280;67802;50.846;7.958;2024-02-04T05:38:10;98431.16;;;19.01;34.08
78509;BME280;67802;50.846;7.958;2024-02-04T05:40:36;98425.06;;;19.00;33.88
78509;BME280;67802;50.846;7.958;2024-02-04T05:43:01;98423.38;;;18.99;33.88
78509;BME280;67802;50.846;7.958;2024-02-04T05:45:32;98437.34;;;19.00;33.96
78509;BME280;67802;50.846;7.958;2024-02-04T05:47:57;98441.78;;;18.99;34.08
78509;BME280;67802;50.846;7.958;2024-02-04T05:50:22;98438.31;;;18.98;34.24
78509;BME280;67802;50.846;7.958;2024-02-04T05:52:47;98437.34;;;19.00;34.19
78509;BME280;67802;50.846;7.958;2024-02-04T05:55:14;98436.53;;;18.99;34.22
78509;BME280;67802;50.846;7.958;2024-02-04T05:57:39;98431.28;;;18.99;34.19
78509;BME280;67802;50.846;7.958;2024-02-04T06:00:05;98419.88;;;18.98;34.00
78509;BME280;67802;50.846;7.958;2024-02-04T06:02:30;98434.84;;;18.98;34.19
78509;BME280;67802;50.846;7.958;2024-02-04T06:04:56;98426.09;;;18.97;33.86
78509;BME280;67802;50.846;7.958;2024-02-04T06:07:21;98426.09;;;18.97;34.30
78509;BME280;67802;50.846;7.958;2024-02-04T06:09:46;98426.09;;;18.97;34.13
78509;BME280;67802;50.846;7.958;2024-02-04T06:12:12;98425.25;;;18.97;34.12
78509;BME280;67802;50.846;7.958;2024-02-04T06:14:37;98409.53;;;18.95;34.32
78509;BME280;67802;50.846;7.958;2024-02-04T06:17:05;98416.59;;;18.95;34.37
78509;BME280;67802;50.846;7.958;2024-02-04T06:19:30;98423.75;;;18.93;34.15
78509;BME280;67802;50.846;7.958;2024-02-04T06:21:55;98420.16;;;18.94;34.38
78509;BME280;67802;50.846;7.958;2024-02-04T06:24:21;98407.09;;;18.92;34.37
78509;BME280;67802;50.846;7.958;2024-02-04T06:26:46;98401.00;;;18.92;34.35
78509;BME280;67802;50.846;7.958;2024-02-04T06:29:11;98407.22;;;18.91;34.31
78509;BME280;67802;50.846;7.958;2024-02-04T06:31:37;98403.84;;;18.89;34.26
78509;BME280;67802;50.846;7.958;2024-02-04T06:34:02;98415.19;;;18.89;34.38
78509;BME280;67802;50.846;7.958;2024-02-04T06:36:27;98417.09;;;18.87;34.43
78509;BME280;67802;50.846;7.958;2024-02-04T06:38:53;98423.31;;;18.86;34.47
78509;BME280;67802;50.846;7.958;2024-02-04T06:41:18;98406.69;;;18.86;34.26
78509;BME280;67802;50.846;7.958;2024-02-04T06:43:44;98411.22;;;18.83;34.47
78509;BME280;67802;50.846;7.958;2024-02-04T06:46:09;98412.16;;;18.82;34.41
78509;BME280;67802;50.846;7.958;2024-02-04T06:48:34;98412.16;;;18.82;34.48
78509;BME280;67802;50.846;7.958;2024-02-04T06:50:59;98403.53;;;18.80;34.34
78509;BME280;67802;50.846;7.958;2024-02-04T06:53:25;98404.38;;;18.81;34.50
78509;BME280;67802;50.846;7.958;2024-02-04T06:55:51;98404.47;;;18.79;34.42
78509;BME280;67802;50.846;7.958;2024-02-04T06:58:16;98400.16;;;18.78;34.38
78509;BME280;67802;50.846;7.958;2024-02-04T07:00:41;98404.59;;;18.78;34.54
78509;BME280;67802;50.846;7.958;2024-02-04T07:03:06;98400.28;;;18.77;34.54
78509;BME280;67802;50.846;7.958;2024-02-04T07:05:32;98396.91;;;18.75;34.43
78509;BME280;67802;50.846;7.958;2024-02-04T07:07:58;98404.78;;;18.75;34.60
78509;BME280;67802;50.846;7.958;2024-02-04T07:10:24;98400.56;;;18.72;34.51
78509;BME280;67802;50.846;7.958;2024-02-04T07:12:49;98394.47;;;18.72;34.46
78509;BME280;67802;50.846;7.958;2024-02-04T07:15:14;98395.28;;;18.72;34.68
78509;BME280;67802;50.846;7.958;2024-02-04T07:17:40;98388.34;;;18.71;34.75
78509;BME280;67802;50.846;7.958;2024-02-04T07:20:05;98385.84;;;18.69;34.55
78509;BME280;67802;50.846;7.958;2024-02-04T07:22:31;98394.69;;;18.68;34.70
78509;BME280;67802;50.846;7.958;2024-02-04T07:24:56;98391.19;;;18.68;34.55
78509;BME280;67802;50.846;7.958;2024-02-04T07:27:22;98403.53;;;18.67;34.56
78509;BME280;67802;50.846;7.958;2024-02-04T07:29:47;98394.75;;;18.67;34.56
78509;BME280;67802;50.846;7.958;2024-02-04T07:32:14;98378.25;;;18.65;34.63
78509;BME280;67802;50.846;7.958;2024-02-04T07:34:40;98375.59;;;18.65;34.70
78509;BME280;67802;50.846;7.958;2024-02-04T07:37:05;98363.38;;;18.64;34.56
78509;BME280;67802;50.846;7.958;2024-02-04T07:39:31;98359.06;;;18.63;34.73
78509;BME280;67802;50.846;7.958;2024-02-04T07:41:56;98359.19;;;18.61;34.55
78509;BME280;67802;50.846;7.958;2024-02-04T07:44:26;98363.50;;;18.62;34.87
78509;BME280;67802;50.846;7.958;2024-02-04T07:46:51;98360.88;;;18.62;34.62
78509;BME280;67802;50.846;7.958;2024-02-04T07:49:16;98366.22;;;18.61;34.65
78509;BME280;67802;50.846;7.958;2024-02-04T07:51:42;98365.41;;;18.60;34.68
78509;BME280;67802;50.846;7.958;2024-02-04T07:54:07;98367.09;;;18.61;34.55
78509;BME280;67802;50.846;7.958;2024-02-04T07:56:32;98371.50;;;18.61;34.88
78509;BME280;67802;50.846;7.958;2024-02-04T07:58:58;98368.03;;;18.60;34.82
78509;BME280;67802;50.846;7.958;2024-02-04T08:01:23;98382.03;;;18.61;34.72
78509;BME280;67802;50.846;7.958;2024-02-04T08:03:49;98382.03;;;18.61;34.67
78509;BME280;67802;50.846;7.958;2024-02-04T08:06:14;98378.44;;;18.62;34.71
78509;BME280;67802;50.846;7.958;2024-02-04T08:08:39;98371.50;;;18.61;34.78
78509;BME280;67802;50.846;7.958;2024-02-04T08:11:07;98369.81;;;18.60;34.91
78509;BME280;67802;50.846;7.958;2024-02-04T08:13:32;98369.72;;;18.61;34.82
78509;BME280;67802;50.846;7.958;2024-02-04T08:15:57;98363.50;;;18.62;34.72
78509;BME280;67802;50.846;7.958;2024-02-04T08:18:23;98364.34;;;18.63;34.64
78509;BME280;67802;50.846;7.958;2024-02-04T08:20:48;98358.13;;;18.64;34.55
78509;BME280;67802;50.846;7.958;2024-02-04T08:23:13;98357.31;;;18.63;34.64
78509;BME280;67802;50.846;7.958;2024-02-04T08:25:39;98368.56;;;18.65;34.80
78509;BME280;67802;50.846;7.958;2024-02-04T08:28:04;98369.41;;;18.66;34.48
78509;BME280;67802;50.846;7.958;2024-02-04T08:30:29;98370.25;;;18.66;34.46
78509;BME280;67802;50.846;7.958;2024-02-04T08:32:55;98365.81;;;18.67;34.67
78509;BME280;67802;50.846;7.958;2024-02-04T08:35:20;98371.81;;;18.69;34.61
78509;BME280;67802;50.846;7.958;2024-02-04T08:37:45;98372.56;;;18.71;34.60
78509;BME280;67802;50.846;7.958;2024-02-04T08:40:11;98366.47;;;18.71;34.62
78509;BME280;67802;50.846;7.958;2024-02-04T08:42:36;98375.94;;;18.73;34.45
78509;BME280;67802;50.846;7.958;2024-02-04T08:45:02;98375.09;;;18.73;34.29
78509;BME280;67802;50.846;7.958;2024-02-04T08:47:27;98375.84;;;18.75;34.48
78509;BME280;67802;50.846;7.958;2024-02-04T08:49:52;98372.34;;;18.74;34.64
78509;BME280;67802;50.846;7.958;2024-02-04T08:52:18;98366.13;;;18.75;34.36
78509;BME280;67802;50.846;7.958;2024-02-04T08:54:43;98372.16;;;18.77;34.62
78509;BME280;67802;50.846;7.958;2024-02-04T08:57:08;98379.09;;;18.78;34.43
78509;BME280;67802;50.846;7.958;2024-02-04T08:59:34;98375.50;;;18.79;34.43
78509;BME280;67802;50.846;7.958;2024-02-04T09:01:59;98372.06;;;18.79;34.51
78509;BME280;67802;50.846;7.958;2024-02-04T09:04:25;98378.06;;;18.81;34.56
78509;BME280;67802;50.846;7.958;2024-02-04T09:06:50;98382.47;;;18.80;34.37
78509;BME280;67802;50.846;7.958;2024-02-04T09:09:15;98362.25;;;18.81;34.41
78509;BME280;67802;50.846;7.958;2024-02-04T09:11:41;98373.63;;;18.81;34.57
78509;BME280;67802;50.846;7.958;2024-02-04T09:14:06;98371.81;;;18.82;34.60
78509;BME280;67802;50.846;7.958;2024-02-04T09:16:32;98372.69;;;18.82;34.52
78509;BME280;67802;50.846;7.958;2024-02-04T09:18:57;98370.03;;;18.82;34.55
78509;BME280;67802;50.846;7.958;2024-02-04T09:21:22;98364.78;;;18.82;34.60
78509;BME280;67802;50.846;7.958;2024-02-04T09:23:48;98368.34;;;18.81;34.57
78509;BME280;67802;50.846;7.958;2024-02-04T09:26:13;98368.34;;;18.81;34.56
78509;BME280;67802;50.846;7.958;2024-02-04T09:28:38;98364.78;;;18.82;34.12
78509;BME280;67802;50.846;7.958;2024-02-04T09:31:04;98366.47;;;18.83;34.60
78509;BME280;67802;50.846;7.958;2024-02-04T09:33:29;98380.56;;;18.82;34.56
78509;BME280;67802;50.846;7.958;2024-02-04T09:35:54;98368.34;;;18.81;34.47
78509;BME280;67802;50.846;7.958;2024-02-04T09:38:20;98366.66;;;18.80;34.61
78509;BME280;67802;50.846;7.958;2024-02-04T09:40:46;98382.34;;;18.82;34.53
78509;BME280;67802;50.846;7.958;2024-02-04T09:43:11;98377.19;;;18.80;34.60
78509;BME280;67802;50.846;7.958;2024-02-04T09:45:38;98379.72;;;18.82;34.46
78509;BME280;67802;50.846;7.958;2024-02-04T09:48:04;98379.84;;;18.80;34.57
78509;BME280;67802;50.846;7.958;2024-02-04T09:50:29;98378.88;;;18.81;34.70
78509;BME280;67802;50.846;7.958;2024-02-04T09:52:58;98387.72;;;18.80;34.63
78509;BME280;67802;50.846;7.958;2024-02-04T09:55:28;98389.53;;;18.80;34.34
78509;BME280;67802;50.846;7.958;2024-02-04T09:57:54;98379.00;;;18.80;34.60
78509;BME280;67802;50.846;7.958;2024-02-04T10:00:19;98380.78;;;18.79;34.64
78509;BME280;67802;50.846;7.958;2024-02-04T10:02:48;98383.41;;;18.79;34.84
78509;BME280;67802;50.846;7.958;2024-02-04T10:05:14;98380.78;;;18.79;34.74
78509;BME280;67802;50.846;7.958;2024-02-04T10:07:40;98380.78;;;18.79;34.78
78509;BME280;67802;50.846;7.958;2024-02-04T10:10:06;98379.09;;;18.78;34.69
78509;BME280;67802;50.846;7.958;2024-02-04T10:12:32;98384.34;;;18.78;34.71
78509;BME280;67802;50.846;7.958;2024-02-04T10:14:58;98392.38;;;18.77;34.74
78509;BME280;67802;50.846;7.958;2024-02-04T10:17:25;98380.97;;;18.76;34.92
78509;BME280;67802;50.846;7.958;2024-02-04T10:19:50;98387.09;;;18.77;34.79
78509;BME280;67802;50.846;7.958;2024-02-04T10:22:16;98383.63;;;18.76;34.76
78509;BME280;67802;50.846;7.958;2024-02-04T10:24:42;98375.72;;;18.76;34.79
78509;BME280;67802;50.846;7.958;2024-02-04T10:27:10;98378.47;;;18.75;34.88
78509;BME280;67802;50.846;7.958;2024-02-04T10:29:35;98367.09;;;18.74;35.00
78509;BME280;67802;50.846;7.958;2024-02-04T10:32:01;98372.47;;;18.73;34.89
78509;BME280;67802;50.846;7.958;2024-02-04T10:34:26;98374.25;;;18.72;34.73
78509;BME280;67802;50.846;7.958;2024-02-04T10:36:53;98365.59;;;18.70;35.00
78509;BME280;67802;50.846;7.958;2024-02-04T10:39:18;98367.28;;;18.71;34.90
78509;BME280;67802;50.846;7.958;2024-02-04T10:41:51;98378.78;;;18.70;34.98
78509;BME280;67802;50.846;7.958;2024-02-04T10:44:18;98377.09;;;18.69;34.86
78509;BME280;67802;50.846;7.958;2024-02-04T10:46:46;98379.72;;;18.69;34.98
78509;BME280;67802;50.846;7.958;2024-02-04T10:49:14;98376.34;;;18.67;35.15
78509;BME280;67802;50.846;7.958;2024-02-04T10:51:41;98376.34;;;18.67;34.91
78509;BME280;67802;50.846;7.958;2024-02-04T10:54:07;98369.41;;;18.66;34.89
78509;BME280;67802;50.846;7.958;2024-02-04T10:56:55;98362.44;;;18.65;35.01
78509;BME280;67802;50.846;7.958;2024-02-04T10:59:22;98364.34;;;18.63;35.03
78509;BME280;67802;50.846;7.958;2024-02-04T11:01:47;98353.00;;;18.62;35.10
78509;BME280;67802;50.846;7.958;2024-02-04T11:04:17;98362.66;;;18.62;35.04
78509;BME280;67802;50.846;7.958;2024-02-04T11:06:42;98354.88;;;18.60;35.00
78509;BME280;67802;50.846;7.958;2024-02-04T11:09:09;98359.28;;;18.60;35.28
78509;BME280;67802;50.846;7.958;2024-02-04T11:11:36;98366.22;;;18.61;35.13
78509;BME280;67802;50.846;7.958;2024-02-04T11:14:04;98358.47;;;18.59;35.22
78509;BME280;67802;50.846;7.958;2024-02-04T11:22:29;98348.97;;;18.57;35.23
78509;BME280;67802;50.846;7.958;2024-02-04T11:27:52;98350.03;;;18.54;35.09
78509;BME280;67802;50.846;7.958;2024-02-04T11:30:17;98340.38;;;18.54;35.27
78509;BME280;67802;50.846;7.958;2024-02-04T11:32:43;98346.56;;;18.53;35.22
78509;BME280;67802;50.846;7.958;2024-02-04T11:35:08;98337.81;;;18.53;35.18
78509;BME280;67802;50.846;7.958;2024-02-04T11:37:37;98324.78;;;18.51;35.27
78509;BME280;67802;50.846;7.958;2024-02-04T11:40:03;98338.88;;;18.50;35.46
78509;BME280;67802;50.846;7.958;2024-02-04T11:42:33;98324.78;;;18.51;35.28
78509;BME280;67802;50.846;7.958;2024-02-04T11:45:12;98331.94;;;18.49;35.24
78509;BME280;67802;50.846;7.958;2024-02-04T11:47:38;98331.19;;;18.47;35.41
78509;BME280;67802;50.846;7.958;2024-02-04T11:50:04;98339.91;;;18.48;35.43
78509;BME280;67802;50.846;7.958;2024-02-04T11:52:29;98334.78;;;18.46;35.25
78509;BME280;67802;50.846;7.958;2024-02-04T11:54:55;98323.31;;;18.47;35.21
78509;BME280;67802;50.846;7.958;2024-02-04T11:57:21;98317.19;;;18.47;35.44
78509;BME280;67802;50.846;7.958;2024-02-04T11:59:47;98316.38;;;18.46;35.27
78509;BME280;67802;50.846;7.958;2024-02-04T12:02:16;98318.88;;;18.48;35.25
78509;BME280;67802;50.846;7.958;2024-02-04T12:04:43;98319.00;;;18.46;35.25
78509;BME280;67802;50.846;7.958;2024-02-04T12:07:09;98303.09;;;18.48;35.40
78509;BME280;67802;50.846;7.958;2024-02-04T12:09:35;98307.53;;;18.47;35.17
78509;BME280;67802;50.846;7.958;2024-02-04T12:12:02;98312.78;;;18.47;35.23
78509;BME280;67802;50.846;7.958;2024-02-04T12:14:28;98293.41;;;18.48;35.01
78509;BME280;67802;50.846;7.958;2024-02-04T12:16:55;98304.69;;;18.50;35.36
78509;BME280;67802;50.846;7.958;2024-02-04T12:19:21;98290.69;;;18.50;35.14
78509;BME280;67802;50.846;7.958;2024-02-04T12:21:46;98294.91;;;18.52;35.28
78509;BME280;67802;50.846;7.958;2024-02-04T12:24:12;98300.16;;;18.52;35.24
78509;BME280;67802;50.846;7.958;2024-02-04T12:26:38;98301.84;;;18.53;35.14
78509;BME280;67802;50.846;7.958;2024-02-04T12:29:04;98288.56;;;18.55;35.23
78509;BME280;67802;50.846;7.958;2024-02-04T12:31:29;98295.53;;;18.56;35.17
78509;BME280;67802;50.846;7.958;2024-02-04T12:33:59;98295.53;;;18.56;35.25
78509;BME280;67802;50.846;7.958;2024-02-04T12:36:30;98294.56;;;18.57;35.33
78509;BME280;67802;50.846;7.958;2024-02-04T12:38:57;98292.75;;;18.58;35.12
78509;BME280;67802;50.846;7.958;2024-02-04T12:41:24;98283.94;;;18.59;35.01
78509;BME280;67802;50.846;7.958;2024-02-04T12:43:59;98281.22;;;18.60;35.30
78509;BME280;67802;50.846;7.958;2024-02-04T12:46:25;98283.72;;;18.62;35.17
78509;BME280;67802;50.846;7.958;2024-02-04T12:48:55;98281.00;;;18.63;34.89
78509;BME280;67802;50.846;7.958;2024-02-04T12:51:27;98281.81;;;18.64;34.98
78509;BME280;67802;50.846;7.958;2024-02-04T12:59:08;98275.53;;;18.66;34.84
78509;BME280;67802;50.846;7.958;2024-02-04T13:01:35;98278.97;;;18.67;35.12
78509;BME280;67802;50.846;7.958;2024-02-04T13:04:00;98271.94;;;18.67;34.96
78509;BME280;67802;50.846;7.958;2024-02-04T13:06:25;98276.34;;;18.67;35.01
78509;BME280;67802;50.846;7.958;2024-02-04T13:08:55;98276.34;;;18.67;35.14